Time;durP1;ratioP1;P1;durP2;ratioP2;P2;SDS_P1;SDS_P2;PMS_P1;PMS_P2;Temp;Humidity;BMP_temperature;BMP_pressure;BME280_temperature;BME280_humidity;BME280_pressure;Samples;Min_cycle;Max_cycle;Signal;HPM_P1;HPM_P2
2024/02/25 00:01:49;;;;;;;0.43;0.40;;;;;;;6.28;71.21;99963.25;5084710;28;20238;-77
2024/02/25 00:04:15;;;;;;;1.60;0.70;;;;;;;6.21;70.81;99955.53;5084608;28;20248;-75
2024/02/25 00:06:44;;;;;;;0.70;0.70;;;;;;;6.21;70.77;99948.63;5092091;28;20320;-76
2024/02/25 00:09:11;;;;;;;0.80;0.50;;;;;;;6.20;71.19;99951.22;5092273;28;20213;-76
2024/02/25 00:11:40;;;;;;;0.70;0.50;;;;;;;6.16;71.03;99947.78;5091109;28;20220;-75
2024/02/25 00:14:06;;;;;;;1.70;0.80;;;;;;;6.07;72.02;99935.78;5092008;28;20248;-77
2024/02/25 00:16:35;;;;;;;0.87;0.60;;;;;;;6.05;71.57;99932.34;5091600;28;20261;-76
2024/02/25 00:19:03;;;;;;;0.53;0.53;;;;;;;6.06;71.81;99940.97;5092003;28;20263;-75
2024/02/25 00:21:30;;;;;;;0.43;0.43;;;;;;;5.97;72.15;99928.97;5092486;28;20200;-76
2024/02/25 00:23:56;;;;;;;0.83;0.57;;;;;;;6.04;72.37;99917.66;5092066;28;20224;-76
2024/02/25 00:26:23;;;;;;;0.77;0.70;;;;;;;6.08;72.98;99911.56;5090968;28;20206;-75
2024/02/25 00:28:49;;;;;;;2.30;0.70;;;;;;;6.04;72.48;99898.69;5086003;28;20196;-78
2024/02/25 00:31:16;;;;;;;1.07;1.07;;;;;;;5.86;72.27;99897.94;5091713;28;20204;-77
2024/02/25 00:33:42;;;;;;;0.73;0.60;;;;;;;5.97;73.00;99888.38;5091326;28;20221;-75
2024/02/25 00:36:10;;;;;;;0.60;0.60;;;;;;;5.99;72.88;99882.34;5091844;28;20200;-75
2024/02/25 00:38:36;;;;;;;1.03;0.70;;;;;;;5.96;73.13;99875.44;5091957;28;20258;-76
2024/02/25 00:41:02;;;;;;;0.70;0.70;;;;;;;5.99;72.63;99874.56;5091468;28;20215;-76
2024/02/25 00:43:29;;;;;;;1.37;0.83;;;;;;;5.97;73.70;99867.66;5091679;28;20265;-76
2024/02/25 00:45:56;;;;;;;1.13;0.70;;;;;;;6.01;72.81;99865.03;5090934;28;20258;-76
2024/02/25 00:48:22;;;;;;;1.00;0.70;;;;;;;5.80;72.98;99866.06;5091633;28;20196;-77
2024/02/25 00:50:50;;;;;;;0.90;0.63;;;;;;;5.88;72.78;99859.06;5091236;28;20250;-77
2024/02/25 00:53:18;;;;;;;1.33;0.70;;;;;;;5.81;73.26;99863.47;5091461;28;20297;-77
2024/02/25 00:55:44;;;;;;;0.87;0.83;;;;;;;5.88;73.23;99856.47;5090496;28;20197;-75
2024/02/25 00:58:10;;;;;;;0.80;0.70;;;;;;;5.79;73.34;99860.03;5090843;28;20200;-76
2024/02/25 01:00:37;;;;;;;1.07;0.60;;;;;;;5.84;72.88;99857.38;5090909;28;20197;-76
2024/02/25 01:03:04;;;;;;;1.13;0.83;;;;;;;5.89;74.09;99850.44;5090840;28;20208;-75
2024/02/25 01:05:30;;;;;;;2.20;1.00;;;;;;;5.87;73.57;99837.50;5090881;28;20204;-76
2024/02/25 01:07:58;;;;;;;1.03;0.90;;;;;;;5.77;74.13;99834.13;5090935;28;20627;-76
2024/02/25 01:10:25;;;;;;;1.60;0.70;;;;;;;5.82;73.91;99836.66;5090561;28;20284;-71
2024/02/25 01:12:51;;;;;;;0.70;0.70;;;;;;;5.85;74.02;99831.47;5090316;28;20282;-74
2024/02/25 01:15:18;;;;;;;1.47;0.90;;;;;;;5.86;74.09;99819.38;5090565;28;20701;-73
2024/02/25 01:17:46;;;;;;;0.80;0.70;;;;;;;5.86;73.31;99828.00;5090643;28;20739;-73
2024/02/25 01:20:12;;;;;;;1.17;1.00;;;;;;;5.82;74.44;99822.88;5091146;28;20204;-73
2024/02/25 01:22:39;;;;;;;1.77;0.80;;;;;;;5.72;74.06;99820.34;5085538;28;20201;-73
2024/02/25 01:25:08;;;;;;;2.07;1.37;;;;;;;5.70;73.30;99816.06;5088534;28;20231;-76
2024/02/25 01:27:39;;;;;;;1.03;0.90;;;;;;;5.70;74.15;99822.09;5089625;28;20270;-76
2024/02/25 01:30:07;;;;;;;1.73;0.90;;;;;;;5.62;75.12;99807.53;5090962;28;20654;-74
2024/02/25 01:32:34;;;;;;;1.30;0.70;;;;;;;5.66;74.14;99796.25;5091087;28;20220;-76
2024/02/25 01:35:00;;;;;;;3.00;0.80;;;;;;;5.67;74.25;99795.38;5090036;28;21017;-76
2024/02/25 01:37:26;;;;;;;1.30;0.70;;;;;;;5.68;73.52;99802.28;5090458;28;20205;-75
2024/02/25 01:39:53;;;;;;;1.60;0.87;;;;;;;5.68;73.83;99785.00;5090469;28;20205;-76
2024/02/25 01:42:19;;;;;;;1.33;0.60;;;;;;;5.57;74.38;99785.13;5090128;28;20257;-77
2024/02/25 01:44:56;;;;;;;1.30;0.83;;;;;;;5.56;74.42;99790.31;5084209;28;20287;-76
2024/02/25 01:47:22;;;;;;;1.23;0.70;;;;;;;5.38;74.31;99796.50;5090416;28;20199;-76
2024/02/25 01:49:49;;;;;;;4.17;1.00;;;;;;;5.32;75.64;99776.69;5090011;28;20613;-75
2024/02/25 01:52:16;;;;;;;0.83;0.60;;;;;;;5.40;75.65;99758.53;5091524;28;20220;-76
2024/02/25 01:54:44;;;;;;;2.37;0.90;;;;;;;5.35;75.85;99747.34;5090804;28;20215;-76
2024/02/25 01:57:10;;;;;;;1.13;0.70;;;;;;;5.41;74.84;99734.38;5089949;28;20208;-76
2024/02/25 01:59:37;;;;;;;0.60;0.60;;;;;;;5.40;75.53;99739.56;5090694;28;20204;-76
2024/02/25 02:02:05;;;;;;;2.40;1.03;;;;;;;5.42;75.26;99733.50;5090557;28;20257;-75
2024/02/25 02:04:32;;;;;;;1.07;0.77;;;;;;;5.47;75.37;99733.44;5090009;28;20791;-76
2024/02/25 02:07:02;;;;;;;0.87;0.80;;;;;;;5.48;75.19;99740.34;5089870;28;20203;-75
2024/02/25 02:09:32;;;;;;;1.27;0.87;;;;;;;5.48;74.63;99751.53;5089900;28;20204;-73
2024/02/25 02:11:59;;;;;;;1.10;1.00;;;;;;;5.53;74.85;99748.91;5089330;28;20624;-76
2024/02/25 02:14:25;;;;;;;0.73;0.70;;;;;;;5.52;74.40;99753.22;5081544;28;20236;-75
2024/02/25 02:16:52;;;;;;;1.03;0.93;;;;;;;5.42;74.30;99741.25;5089605;28;20254;-76
2024/02/25 02:19:19;;;;;;;1.27;0.83;;;;;;;5.45;74.81;99745.53;5090020;28;20727;-75
2024/02/25 02:21:47;;;;;;;1.10;0.80;;;;;;;5.31;74.20;99746.53;5089820;28;20200;-76
2024/02/25 02:24:15;;;;;;;1.10;0.80;;;;;;;5.18;75.22;99738.00;5090087;28;20225;-76
2024/02/25 02:26:41;;;;;;;1.10;0.90;;;;;;;5.28;75.57;99717.25;5089846;28;20207;-75
2024/02/25 02:29:09;;;;;;;2.33;0.70;;;;;;;5.29;75.46;99712.06;5090452;28;20269;-76
2024/02/25 02:31:35;;;;;;;0.57;0.57;;;;;;;5.31;75.79;99702.56;5090137;28;20200;-77
2024/02/25 02:34:02;;;;;;;1.07;0.70;;;;;;;5.27;75.10;99710.34;5089486;28;20281;-75
2024/02/25 02:36:28;;;;;;;1.63;0.80;;;;;;;5.31;75.32;99706.84;5093678;28;20590;-76
2024/02/25 02:38:56;;;;;;;1.90;0.70;;;;;;;5.32;74.93;99701.66;5094510;28;20287;-75
2024/02/25 02:41:25;;;;;;;1.03;0.70;;;;;;;5.23;75.13;99706.06;5092502;28;20674;-75
2024/02/25 02:43:51;;;;;;;0.60;0.60;;;;;;;5.20;75.85;99698.34;5093207;28;20230;-75
2024/02/25 02:46:18;;;;;;;0.73;0.73;;;;;;;5.19;75.85;99689.69;5093747;28;20203;-76
2024/02/25 02:48:44;;;;;;;0.70;0.70;;;;;;;5.20;75.17;99691.44;5093468;28;20226;-76
2024/02/25 02:51:11;;;;;;;1.63;0.70;;;;;;;5.07;76.83;99684.66;5085435;28;20212;-75
2024/02/25 02:53:38;;;;;;;0.80;0.80;;;;;;;4.96;78.08;99662.31;5089723;28;20233;-75
2024/02/25 02:56:06;;;;;;;4.27;1.47;;;;;;;4.97;78.02;99634.72;5090004;28;20551;-75
2024/02/25 02:58:32;;;;;;;1.20;0.70;;;;;;;4.97;77.88;99614.03;5093721;28;20647;-75
2024/02/25 03:00:58;;;;;;;0.57;0.50;;;;;;;4.85;78.00;99609.84;5093717;28;20208;-75
2024/02/25 03:03:25;;;;;;;1.03;0.80;;;;;;;4.86;78.53;99605.53;5092852;28;20266;-75
2024/02/25 03:05:51;;;;;;;2.10;0.70;;;;;;;4.82;78.42;99603.84;5093867;28;20269;-75
2024/02/25 03:08:17;;;;;;;0.77;0.70;;;;;;;4.89;77.64;99600.31;5093551;28;20249;-74
2024/02/25 03:10:44;;;;;;;1.17;0.80;;;;;;;4.75;78.04;99593.53;5092662;28;20211;-77
2024/02/25 03:13:12;;;;;;;1.33;0.70;;;;;;;4.87;78.26;99582.22;5093708;28;20257;-76
2024/02/25 03:15:38;;;;;;;0.70;0.70;;;;;;;4.83;77.80;99584.88;5092788;28;20732;-76
2024/02/25 03:18:05;;;;;;;0.80;0.60;;;;;;;4.80;78.59;99578.00;5092526;28;20257;-74
2024/02/25 03:20:31;;;;;;;1.33;0.70;;;;;;;4.77;79.41;99563.38;5085242;28;20199;-76
2024/02/25 03:22:58;;;;;;;1.07;0.70;;;;;;;4.68;79.30;99547.09;5092813;28;20573;-74
2024/02/25 03:25:25;;;;;;;0.53;0.53;;;;;;;4.78;78.94;99539.25;5092521;28;20254;-76
2024/02/25 03:27:52;;;;;;;1.03;0.80;;;;;;;4.51;79.55;99548.09;5092475;28;20693;-75
2024/02/25 03:30:21;;;;;;;0.60;0.60;;;;;;;4.70;79.73;99530.72;5093897;28;20208;-76
2024/02/25 03:32:47;;;;;;;1.73;0.83;;;;;;;4.76;79.44;99525.47;5092864;28;20293;-75
2024/02/25 03:35:14;;;;;;;2.00;0.93;;;;;;;4.81;79.66;99530.59;5093063;28;20273;-75
2024/02/25 03:37:41;;;;;;;0.83;0.50;;;;;;;4.90;79.07;99519.31;5092991;28;20200;-76
2024/02/25 03:40:08;;;;;;;1.47;0.70;;;;;;;4.82;78.83;99536.63;5092870;28;20708;-76
2024/02/25 03:42:35;;;;;;;0.73;0.73;;;;;;;4.91;79.32;99539.09;5092165;28;20973;-75
2024/02/25 03:45:03;;;;;;;1.40;0.87;;;;;;;4.92;78.50;99536.50;5093119;28;20851;-75
2024/02/25 03:47:31;;;;;;;2.20;0.60;;;;;;;4.94;78.49;99546.84;5090649;28;20258;-76
2024/02/25 03:49:57;;;;;;;0.67;0.60;;;;;;;4.95;78.80;99544.22;5092836;28;20207;-75
2024/02/25 03:52:24;;;;;;;0.87;0.50;;;;;;;4.97;78.33;99542.50;5092124;28;20208;-76
2024/02/25 03:54:50;;;;;;;0.60;0.60;;;;;;;4.95;78.85;99538.19;5092829;28;20254;-76
2024/02/25 03:57:16;;;;;;;0.50;0.50;;;;;;;4.96;78.73;99535.59;5090792;28;20722;-74
2024/02/25 03:59:43;;;;;;;1.17;0.80;;;;;;;5.06;78.41;99532.94;5085963;28;20210;-75
2024/02/25 04:02:09;;;;;;;2.10;0.73;;;;;;;5.09;78.04;99538.06;5093338;28;20253;-73
2024/02/25 04:04:37;;;;;;;0.97;0.60;;;;;;;5.14;77.29;99559.56;5092648;28;20273;-71
2024/02/25 04:07:04;;;;;;;1.17;0.80;;;;;;;5.30;77.21;99575.78;5092283;28;20212;-75
2024/02/25 04:09:30;;;;;;;0.60;0.60;;;;;;;5.36;76.35;99592.06;5092313;28;20194;-71
2024/02/25 04:11:56;;;;;;;0.70;0.70;;;;;;;5.46;76.31;99591.97;5092342;28;20208;-75
2024/02/25 04:14:23;;;;;;;1.13;0.80;;;;;;;5.42;76.33;99600.66;5092411;28;20285;-77
2024/02/25 04:16:49;;;;;;;0.87;0.77;;;;;;;5.45;77.10;99606.66;5091920;28;20204;-75
2024/02/25 04:19:15;;;;;;;0.90;0.73;;;;;;;5.52;76.24;99599.66;5092054;28;20254;-76
2024/02/25 04:21:43;;;;;;;1.27;0.83;;;;;;;5.47;76.23;99615.25;5092644;28;20200;-75
2024/02/25 04:24:09;;;;;;;1.07;0.70;;;;;;;5.57;75.16;99618.59;5092123;28;20220;-75
2024/02/25 04:26:36;;;;;;;1.40;0.97;;;;;;;5.62;75.14;99640.09;5090859;28;20219;-77
2024/02/25 04:29:02;;;;;;;1.57;0.90;;;;;;;5.68;74.39;99639.16;5091272;28;20204;-76
2024/02/25 04:31:29;;;;;;;1.57;0.87;;;;;;;5.75;74.86;99644.25;5091578;28;20216;-75
2024/02/25 04:33:55;;;;;;;0.90;0.80;;;;;;;5.77;74.42;99652.88;5091683;28;20227;-76
2024/02/25 04:36:21;;;;;;;1.80;0.80;;;;;;;5.77;73.84;99663.22;5091682;28;20207;-76
2024/02/25 04:38:50;;;;;;;0.87;0.70;;;;;;;5.83;73.93;99666.59;5092148;28;20256;-75
2024/02/25 04:41:18;;;;;;;0.77;0.77;;;;;;;5.90;73.23;99669.09;5091292;28;20743;-75
2024/02/25 04:43:44;;;;;;;2.97;0.73;;;;;;;5.86;73.93;99680.38;5082840;28;20216;-76
2024/02/25 04:46:10;;;;;;;0.80;0.80;;;;;;;5.81;73.21;99678.69;5091513;28;20272;-76
2024/02/25 04:48:38;;;;;;;0.93;0.87;;;;;;;5.86;72.38;99687.28;5083389;28;20220;-75
2024/02/25 04:51:04;;;;;;;1.43;0.90;;;;;;;5.85;73.21;99689.03;5091206;28;20208;-75
2024/02/25 04:53:30;;;;;;;1.43;0.90;;;;;;;5.93;73.20;99670.81;5091361;28;20648;-75
2024/02/25 04:56:00;;;;;;;1.20;0.90;;;;;;;5.94;73.30;99673.34;5090842;28;20208;-75
2024/02/25 04:58:26;;;;;;;0.80;0.73;;;;;;;5.91;72.35;99686.38;5091379;28;20277;-76
2024/02/25 05:00:52;;;;;;;2.63;0.87;;;;;;;5.93;71.79;99692.38;5091504;28;20200;-75
2024/02/25 05:03:19;;;;;;;1.10;0.80;;;;;;;5.87;72.38;99691.59;5091367;28;20733;-76
2024/02/25 05:05:45;;;;;;;1.90;0.90;;;;;;;5.93;72.80;99694.13;5091563;28;20200;-76
2024/02/25 05:08:11;;;;;;;1.53;0.90;;;;;;;5.96;72.83;99702.72;5090738;28;20623;-76
2024/02/25 05:10:38;;;;;;;1.70;1.07;;;;;;;5.94;71.46;99707.03;5090270;28;20209;-75
2024/02/25 05:13:06;;;;;;;1.67;0.97;;;;;;;5.97;71.70;99712.22;5090844;28;20220;-76
2024/02/25 05:15:33;;;;;;;0.60;0.60;;;;;;;5.99;71.33;99721.72;5090731;28;20738;-74
2024/02/25 05:17:59;;;;;;;1.47;0.90;;;;;;;5.96;72.06;99725.19;5091346;28;20608;-76
2024/02/25 05:20:26;;;;;;;1.27;0.80;;;;;;;5.96;72.08;99714.81;5091164;28;20262;-76
2024/02/25 05:22:52;;;;;;;0.80;0.70;;;;;;;6.01;71.98;99720.81;5091447;28;20208;-74
2024/02/25 05:25:19;;;;;;;1.30;0.93;;;;;;;6.01;71.48;99722.56;5090622;28;20236;-76
2024/02/25 05:27:46;;;;;;;1.37;1.00;;;;;;;5.91;71.33;99739.91;5090240;28;20204;-76
2024/02/25 05:30:15;;;;;;;0.90;0.70;;;;;;;5.89;70.75;99744.25;5090831;28;20236;-76
2024/02/25 05:32:41;;;;;;;0.97;0.97;;;;;;;5.94;70.89;99751.06;5082584;28;20254;-77
2024/02/25 05:35:09;;;;;;;0.87;0.80;;;;;;;6.03;70.96;99739.78;5090709;28;20245;-76
2024/02/25 05:37:35;;;;;;;0.80;0.53;;;;;;;6.09;70.24;99742.31;5090590;28;20281;-76
2024/02/25 05:40:03;;;;;;;2.07;0.90;;;;;;;6.16;70.78;99750.84;5089357;28;20748;-75
2024/02/25 05:42:29;;;;;;;1.43;0.87;;;;;;;6.12;70.90;99755.22;5090277;28;20204;-75
2024/02/25 05:44:55;;;;;;;0.87;0.70;;;;;;;6.12;71.78;99747.44;5090336;28;20289;-75
2024/02/25 05:47:23;;;;;;;1.17;0.80;;;;;;;6.16;71.45;99738.78;5090221;28;20735;-75
2024/02/25 05:49:49;;;;;;;1.03;0.80;;;;;;;6.01;70.58;99744.13;5090568;28;20257;-76
2024/02/25 05:52:16;;;;;;;1.13;0.77;;;;;;;6.05;70.61;99755.31;5090302;28;20208;-75
2024/02/25 05:54:42;;;;;;;1.27;0.90;;;;;;;6.09;70.47;99759.59;5081975;28;20686;-76
2024/02/25 05:57:08;;;;;;;1.60;0.80;;;;;;;6.11;69.41;99765.63;5089778;28;20216;-75
2024/02/25 05:59:35;;;;;;;1.10;0.83;;;;;;;6.13;69.08;99782.00;5090335;28;20253;-74
2024/02/25 06:02:01;;;;;;;2.40;1.10;;;;;;;6.26;69.74;99775.78;5090484;28;20200;-76
2024/02/25 06:04:29;;;;;;;1.10;0.90;;;;;;;6.25;69.01;99792.22;5089478;28;20238;-75
2024/02/25 06:06:56;;;;;;;1.00;1.00;;;;;;;6.25;66.97;99805.19;5090579;28;20309;-73
2024/02/25 06:09:22;;;;;;;2.87;1.33;;;;;;;6.26;67.83;99825.03;5090166;28;20225;-76
2024/02/25 06:11:50;;;;;;;2.33;1.23;;;;;;;6.31;67.61;99840.53;5094431;28;20200;-75
2024/02/25 06:14:16;;;;;;;1.60;1.50;;;;;;;6.32;67.52;99842.25;5094579;28;20223;-75
2024/02/25 06:16:43;;;;;;;2.60;1.70;;;;;;;6.39;67.38;99856.84;5093853;28;20261;-75
2024/02/25 06:19:09;;;;;;;5.07;1.30;;;;;;;6.36;66.76;99881.09;5086012;28;20579;-75
2024/02/25 06:21:37;;;;;;;2.47;1.70;;;;;;;6.46;67.41;99884.44;5090305;28;20256;-75
2024/02/25 06:24:04;;;;;;;1.53;1.20;;;;;;;6.47;66.29;99880.97;5094638;28;20267;-76
2024/02/25 06:26:30;;;;;;;1.40;1.30;;;;;;;6.51;66.94;99902.53;5085621;28;20270;-76
2024/02/25 06:28:58;;;;;;;2.30;1.40;;;;;;;6.52;65.26;99904.22;5094369;28;20204;-76
2024/02/25 06:31:24;;;;;;;1.43;1.33;;;;;;;6.54;65.38;99923.22;5085427;28;20298;-75
2024/02/25 06:33:51;;;;;;;1.47;1.33;;;;;;;6.57;65.93;99928.38;5089775;28;20758;-76
2024/02/25 06:36:21;;;;;;;1.30;1.20;;;;;;;6.57;66.86;99915.41;5089123;28;20683;-72
2024/02/25 06:38:48;;;;;;;1.40;1.30;;;;;;;6.60;66.11;99915.41;5094544;28;20733;-75
2024/02/25 06:41:19;;;;;;;1.10;1.00;;;;;;;6.51;64.72;99933.66;5093802;28;20212;-76
2024/02/25 06:43:45;;;;;;;1.23;1.10;;;;;;;6.61;65.14;99943.03;5094439;28;20220;-75
2024/02/25 06:46:11;;;;;;;1.10;1.00;;;;;;;6.62;65.74;99955.16;5086464;28;20205;-74
2024/02/25 06:48:38;;;;;;;1.30;1.03;;;;;;;6.63;66.57;99949.06;5091290;28;20212;-76
2024/02/25 06:51:05;;;;;;;1.20;1.10;;;;;;;6.48;63.99;99954.41;5081880;28;20209;-76
2024/02/25 06:53:33;;;;;;;2.20;1.60;;;;;;;6.43;64.30;99976.94;5091949;28;20230;-76
2024/02/25 06:56:01;;;;;;;1.87;1.77;;;;;;;6.57;64.13;99983.69;5093110;28;20200;-76
2024/02/25 06:58:29;;;;;;;1.77;1.67;;;;;;;6.74;65.30;99980.09;5093139;28;20666;-75
2024/02/25 07:00:58;;;;;;;2.40;1.80;;;;;;;6.82;65.29;99956.63;5088547;28;20255;-76
2024/02/25 07:03:24;;;;;;;2.30;2.10;;;;;;;6.81;65.08;99973.94;5090332;28;20224;-74
2024/02/25 07:05:50;;;;;;;2.60;1.83;;;;;;;6.75;64.55;99982.63;5093185;28;20197;-77
2024/02/25 07:08:17;;;;;;;2.13;1.93;;;;;;;6.85;64.19;99995.53;5093744;28;20201;-76
2024/02/25 07:10:43;;;;;;;2.87;2.20;;;;;;;6.85;64.73;99993.78;5092655;28;20555;-76
2024/02/25 07:13:11;;;;;;;2.03;1.80;;;;;;;6.99;64.67;99990.19;5084911;28;20232;-75
2024/02/25 07:15:37;;;;;;;2.00;1.70;;;;;;;6.99;64.35;99995.38;5092509;28;20232;-76
2024/02/25 07:18:04;;;;;;;2.40;2.00;;;;;;;7.01;64.43;99986.69;5093584;28;20211;-75
2024/02/25 07:20:30;;;;;;;2.03;1.87;;;;;;;7.03;64.24;100002.25;5092993;28;20257;-73
2024/02/25 07:22:56;;;;;;;2.00;1.80;;;;;;;7.03;63.89;100012.63;5094020;28;20253;-74
2024/02/25 07:25:23;;;;;;;2.03;1.80;;;;;;;7.05;63.72;100016.91;5093637;28;20202;-76
2024/02/25 07:27:49;;;;;;;1.80;1.50;;;;;;;7.14;63.99;100021.16;5093041;28;20748;-76
2024/02/25 07:30:17;;;;;;;2.07;1.63;;;;;;;7.08;62.86;100027.28;5085596;28;20209;-73
2024/02/25 07:32:45;;;;;;;1.47;1.27;;;;;;;7.11;63.35;100036.75;5092191;28;20319;-75
2024/02/25 07:35:11;;;;;;;1.47;1.10;;;;;;;7.03;63.04;100046.34;5092967;28;20748;-76
2024/02/25 07:37:38;;;;;;;1.63;1.30;;;;;;;6.95;62.52;100049.03;5090715;28;20250;-75
2024/02/25 07:40:08;;;;;;;1.20;1.10;;;;;;;6.95;62.43;100052.47;5081380;28;20201;-76
2024/02/25 07:42:34;;;;;;;1.43;0.97;;;;;;;6.68;63.50;100063.13;5088712;28;20666;-76
2024/02/25 07:45:00;;;;;;;0.97;0.97;;;;;;;6.87;64.01;100037.88;5086042;28;20219;-75
2024/02/25 07:47:28;;;;;;;1.10;1.00;;;;;;;6.94;63.81;100035.19;5083395;28;20209;-75
2024/02/25 07:49:54;;;;;;;1.17;1.07;;;;;;;6.89;64.47;100029.19;5092863;28;20627;-76
2024/02/25 07:52:21;;;;;;;1.47;1.10;;;;;;;7.00;63.52;100023.91;5093689;28;20212;-76
2024/02/25 07:54:47;;;;;;;1.23;1.10;;;;;;;6.83;63.73;100026.66;5084201;28;20257;-75
2024/02/25 07:57:13;;;;;;;1.20;1.10;;;;;;;7.19;64.44;100024.53;5092049;28;20204;-76
2024/02/25 07:59:39;;;;;;;1.20;1.10;;;;;;;7.00;64.33;100023.91;5092775;28;20262;-76
2024/02/25 08:02:06;;;;;;;2.00;0.93;;;;;;;7.05;64.61;100029.03;5090754;28;20201;-77
2024/02/25 08:04:36;;;;;;;1.27;1.03;;;;;;;7.20;64.38;100012.44;5092762;28;20594;-75
2024/02/25 08:07:03;;;;;;;1.77;0.80;;;;;;;7.18;66.12;100012.44;5092455;28;20287;-75
2024/02/25 08:09:30;;;;;;;1.20;1.00;;;;;;;7.18;64.94;100004.66;5091580;28;20586;-75
2024/02/25 08:11:57;;;;;;;1.17;1.07;;;;;;;7.29;66.34;99988.94;5091696;28;20227;-76
2024/02/25 08:14:23;;;;;;;1.37;0.80;;;;;;;7.25;66.84;99979.47;5092451;28;20235;-74
2024/02/25 08:16:50;;;;;;;0.97;0.90;;;;;;;7.33;66.68;99969.84;5091054;28;20731;-76
2024/02/25 08:19:16;;;;;;;1.33;1.00;;;;;;;7.10;67.47;99959.78;5090824;28;20226;-74
2024/02/25 08:21:44;;;;;;;1.47;0.90;;;;;;;7.28;69.07;99935.31;5090907;28;20204;-75
2024/02/25 08:24:11;;;;;;;1.83;0.90;;;;;;;7.33;68.61;99892.84;5089612;28;20754;-76
2024/02/25 08:26:38;;;;;;;1.00;0.80;;;;;;;7.16;69.02;99893.06;5090545;28;20206;-76
2024/02/25 08:29:04;;;;;;;0.67;0.67;;;;;;;7.29;68.84;99888.53;5091160;28;20205;-76
2024/02/25 08:31:31;;;;;;;1.00;0.90;;;;;;;7.40;68.65;99887.56;5088386;28;20208;-76
2024/02/25 08:34:02;;;;;;;1.70;0.77;;;;;;;7.44;68.27;99884.88;5091164;28;20271;-76
2024/02/25 08:36:29;;;;;;;1.03;0.77;;;;;;;7.32;67.59;99883.31;5091537;28;20295;-77
2024/02/25 08:38:56;;;;;;;1.97;0.90;;;;;;;7.28;67.52;99883.41;5091550;28;20245;-74
2024/02/25 08:41:23;;;;;;;1.00;0.90;;;;;;;7.39;68.78;99888.41;5091176;28;20565;-77
2024/02/25 08:43:49;;;;;;;0.80;0.80;;;;;;;7.28;68.11;99886.84;5091757;28;20233;-76
2024/02/25 08:46:15;;;;;;;1.20;1.10;;;;;;;7.52;68.63;99882.16;5092107;28;20257;-78
2024/02/25 08:48:42;;;;;;;1.80;1.17;;;;;;;7.48;67.58;99886.53;5092626;28;20235;-76
2024/02/25 08:51:08;;;;;;;1.10;0.90;;;;;;;7.64;67.68;99897.56;5092226;28;20211;-76
2024/02/25 08:53:34;;;;;;;1.70;1.07;;;;;;;7.75;68.28;99895.66;5092325;28;20225;-77
2024/02/25 08:56:03;;;;;;;0.90;0.90;;;;;;;7.78;67.45;99902.53;5090467;28;20220;-76
2024/02/25 08:58:29;;;;;;;1.00;0.90;;;;;;;7.92;66.77;99904.91;5091365;28;20564;-75
2024/02/25 09:00:56;;;;;;;1.47;1.10;;;;;;;7.53;65.37;99949.69;5090986;28;20669;-75
2024/02/25 09:03:22;;;;;;;1.17;1.07;;;;;;;7.44;63.86;99967.97;5091204;28;20274;-76
2024/02/25 09:05:49;;;;;;;1.43;0.90;;;;;;;7.55;65.95;99980.78;5091791;28;20192;-76
2024/02/25 09:08:16;;;;;;;0.90;0.80;;;;;;;7.75;65.72;99963.19;5091126;28;20201;-76
2024/02/25 09:10:43;;;;;;;1.30;1.10;;;;;;;7.89;64.80;99969.94;5089846;28;20231;-75
2024/02/25 09:13:10;;;;;;;1.33;1.23;;;;;;;7.96;65.12;99984.53;5090163;28;20644;-76
2024/02/25 09:15:37;;;;;;;5.27;1.00;;;;;;;7.83;64.04;99999.47;5082505;28;20221;-76
2024/02/25 09:18:03;;;;;;;1.43;1.20;;;;;;;7.80;63.54;100029.81;5091168;28;20204;-75
2024/02/25 09:20:33;;;;;;;1.40;0.93;;;;;;;7.77;65.58;100030.72;5090503;28;20215;-77
2024/02/25 09:23:01;;;;;;;1.80;1.70;;;;;;;7.75;65.72;100022.97;5091711;28;20204;-76
2024/02/25 09:25:32;;;;;;;1.00;0.83;;;;;;;7.86;65.83;100002.00;5091493;28;20200;-76
2024/02/25 09:27:59;;;;;;;0.87;0.87;;;;;;;7.69;65.17;99999.66;5090649;28;20291;-76
2024/02/25 09:30:26;;;;;;;0.73;0.73;;;;;;;7.89;66.78;99981.19;5090839;28;20204;-76
2024/02/25 09:32:53;;;;;;;1.40;0.87;;;;;;;7.75;65.72;99975.34;5090874;28;20208;-76
2024/02/25 09:35:19;;;;;;;1.00;0.90;;;;;;;7.78;66.72;99954.50;5090169;28;20269;-75
2024/02/25 09:37:45;;;;;;;0.90;0.90;;;;;;;7.94;66.82;99950.75;5091108;28;20227;-76
2024/02/25 09:40:12;;;;;;;0.87;0.80;;;;;;;7.67;66.97;99959.88;5091135;28;20226;-75
2024/02/25 09:42:43;;;;;;;1.03;0.93;;;;;;;7.73;67.11;99938.97;5089592;28;20265;-76
2024/02/25 09:45:17;;;;;;;1.10;0.90;;;;;;;7.92;67.58;99925.69;5084157;28;20227;-76
2024/02/25 09:47:45;;;;;;;1.53;1.43;;;;;;;7.96;67.44;99932.56;5090326;28;20200;-76
2024/02/25 09:50:13;;;;;;;1.70;1.30;;;;;;;7.69;67.15;99949.44;5090421;28;20258;-76
2024/02/25 09:52:41;;;;;;;1.40;1.30;;;;;;;7.80;67.27;99931.94;5090133;28;20200;-76
2024/02/25 09:55:11;;;;;;;1.53;0.90;;;;;;;8.05;67.44;99926.38;5090168;28;20219;-76
2024/02/25 09:57:37;;;;;;;0.80;0.80;;;;;;;8.05;67.71;99914.22;5089996;28;20245;-74
2024/02/25 10:00:05;;;;;;;1.10;0.80;;;;;;;8.04;67.24;99919.44;5090398;28;20200;-76
2024/02/25 10:02:32;;;;;;;1.30;1.00;;;;;;;8.18;67.75;99917.44;5090484;28;20210;-76
2024/02/25 10:05:02;;;;;;;1.37;0.90;;;;;;;8.24;67.99;99911.28;5090425;28;20251;-76
2024/02/25 10:07:28;;;;;;;1.40;0.63;;;;;;;8.32;68.82;99905.09;5090863;28;20200;-77
2024/02/25 10:09:56;;;;;;;2.47;1.20;;;;;;;8.39;66.91;99904.97;5090338;28;20200;-76
2024/02/25 10:12:23;;;;;;;1.13;1.00;;;;;;;8.27;66.54;99922.50;5089827;28;20205;-77
2024/02/25 10:14:52;;;;;;;1.63;1.10;;;;;;;8.43;67.13;99919.66;5089949;28;20747;-76
2024/02/25 10:17:22;;;;;;;1.70;0.90;;;;;;;8.22;68.09;99929.50;5090041;28;20200;-75
2024/02/25 10:19:52;;;;;;;0.90;0.90;;;;;;;8.34;68.41;99905.03;5082460;28;20204;-76
2024/02/25 10:22:21;;;;;;;0.70;0.70;;;;;;;8.59;69.57;99868.19;5090381;28;20346;-76
2024/02/25 10:24:48;;;;;;;0.70;0.70;;;;;;;8.62;67.99;99886.31;5090172;28;20216;-74
2024/02/25 10:27:15;;;;;;;0.97;0.80;;;;;;;8.57;67.79;99895.97;5089501;28;20202;-76
2024/02/25 10:29:55;;;;;;;0.70;0.70;;;;;;;8.51;67.65;99909.97;5089803;28;20294;-77
2024/02/25 10:32:23;;;;;;;0.97;0.70;;;;;;;8.56;67.72;99910.72;5089846;28;20197;-77
2024/02/25 10:34:50;;;;;;;0.93;0.90;;;;;;;8.35;68.07;99910.22;5087842;28;20222;-75
2024/02/25 10:37:21;;;;;;;0.80;0.80;;;;;;;8.42;68.57;99897.97;5083722;28;20200;-76
2024/02/25 10:39:52;;;;;;;0.70;0.70;;;;;;;8.68;70.07;99874.06;5089500;28;20205;-75
2024/02/25 10:42:22;;;;;;;0.90;0.73;;;;;;;8.48;68.99;99881.41;5089161;28;20226;-78
2024/02/25 10:44:49;;;;;;;0.70;0.70;;;;;;;8.64;69.33;99855.94;5090328;28;20213;-77
2024/02/25 10:47:18;;;;;;;0.63;0.63;;;;;;;8.80;69.37;99859.06;5089836;28;20200;-75
2024/02/25 10:49:47;;;;;;;0.70;0.70;;;;;;;8.66;68.00;99854.16;5089631;28;20221;-76
2024/02/25 10:52:14;;;;;;;1.33;0.70;;;;;;;8.97;68.31;99861.34;5089600;28;20253;-77
2024/02/25 10:54:46;;;;;;;0.70;0.70;;;;;;;8.97;67.11;99880.41;5089842;28;20599;-78
2024/02/25 10:57:13;;;;;;;0.70;0.70;;;;;;;8.94;66.77;99888.28;5084321;28;20200;-76
2024/02/25 10:59:40;;;;;;;0.70;0.70;;;;;;;9.14;67.64;99882.66;5090560;28;20200;-77
2024/02/25 11:02:08;;;;;;;0.57;0.57;;;;;;;9.26;67.94;99871.09;5093090;28;20197;-75
2024/02/25 11:04:35;;;;;;;0.60;0.60;;;;;;;9.28;67.83;99874.53;5092749;28;20707;-76
2024/02/25 11:07:05;;;;;;;0.60;0.60;;;;;;;8.78;68.07;99885.16;5093133;28;20209;-79
2024/02/25 11:09:32;;;;;;;1.27;0.90;;;;;;;8.84;68.18;99881.53;5087714;28;20283;-76
2024/02/25 11:12:20;;;;;;;0.60;0.60;;;;;;;8.74;68.18;99875.66;5093322;28;20686;-75
2024/02/25 11:14:51;;;;;;;0.50;0.50;;;;;;;8.74;68.08;99876.53;5093613;28;20234;-75
2024/02/25 11:17:18;;;;;;;0.90;0.90;;;;;;;8.98;69.48;99845.69;5092422;28;20205;-76
2024/02/25 11:20:04;;;;;;;0.63;0.63;;;;;;;9.26;69.11;99829.44;5093031;28;20209;-76
2024/02/25 11:22:39;;;;;;;0.50;0.50;;;;;;;9.12;68.55;99859.25;5085879;28;20208;-75
2024/02/25 11:25:05;;;;;;;0.50;0.50;;;;;;;9.31;67.45;99864.03;5093629;28;20220;-76
2024/02/25 11:27:55;;;;;;;0.47;0.47;;;;;;;9.17;66.37;99894.75;5092185;28;20254;-75
2024/02/25 11:30:22;;;;;;;0.63;0.63;;;;;;;9.21;67.13;99902.44;5093370;28;20196;-73
2024/02/25 11:32:49;;;;;;;0.60;0.60;;;;;;;9.42;66.76;99901.13;5093403;28;20235;-74
2024/02/25 11:35:17;;;;;;;0.50;0.50;;;;;;;9.34;65.31;99918.66;5092503;28;20597;-75
2024/02/25 11:37:44;;;;;;;0.50;0.50;;;;;;;8.83;66.29;99947.50;5092682;28;20197;-76
2024/02/25 11:40:11;;;;;;;0.60;0.60;;;;;;;9.18;66.85;99917.25;5093479;28;20256;-75
2024/02/25 11:42:40;;;;;;;0.90;0.80;;;;;;;9.21;67.49;99918.06;5092031;28;20204;-77